Time;durP1;ratioP1;P1;durP2;ratioP2;P2;SDS_P1;SDS_P2;PMS_P1;PMS_P2;Temp;Humidity;BMP_temperature;BMP_pressure;BME280_temperature;BME280_humidity;BME280_pressure;Samples;Min_cycle;Max_cycle;Signal;HPM_P1;HPM_P2
2022/06/25 00:01:48;;;;;;;20.77;19.77;;;17.50;89.90;;;;;;4988720;28;20572;-70
2022/06/25 00:07:01;;;;;;;20.70;19.10;;;17.50;90.00;;;;;;4988737;28;20540;-67
2022/06/25 00:09:28;;;;;;;20.50;19.50;;;17.40;90.00;;;;;;4985686;28;20469;-67
2022/06/25 00:14:47;;;;;;;19.80;18.90;;;17.40;89.90;;;;;;4989118;28;20457;-67
2022/06/25 00:17:14;;;;;;;19.30;18.40;;;17.40;90.00;;;;;;4990026;28;20984;-67
2022/06/25 00:19:42;;;;;;;19.73;18.83;;;17.40;90.10;;;;;;4985202;28;20543;-67
2022/06/25 00:22:09;;;;;;;19.80;18.70;;;17.40;90.00;;;;;;4987016;28;20549;-67
2022/06/25 00:24:36;;;;;;;20.00;19.00;;;17.40;90.30;;;;;;4985322;28;20458;-67
2022/06/25 00:27:04;;;;;;;18.87;17.97;;;17.30;90.40;;;;;;4988238;28;20565;-67
2022/06/25 00:29:31;;;;;;;19.57;18.40;;;17.30;90.40;;;;;;4986213;28;20465;-67
2022/06/25 00:31:58;;;;;;;19.40;18.30;;;17.30;90.50;;;;;;4987622;28;20545;-67
2022/06/25 00:34:25;;;;;;;19.90;18.70;;;17.30;90.50;;;;;;4987900;28;20548;-67
2022/06/25 00:36:54;;;;;;;19.20;18.13;;;17.20;90.70;;;;;;4985964;28;20501;-67
2022/06/25 00:39:21;;;;;;;19.33;18.10;;;17.20;90.80;;;;;;4985329;28;20462;-67
2022/06/25 00:41:48;;;;;;;19.07;18.10;;;17.20;90.80;;;;;;4987531;28;20565;-67
2022/06/25 00:44:16;;;;;;;19.23;18.13;;;17.20;90.60;;;;;;4986993;28;20565;-67
2022/06/25 00:46:46;;;;;;;19.57;18.67;;;17.20;90.60;;;;;;4987787;28;20521;-67
2022/06/25 00:49:13;;;;;;;19.90;18.90;;;17.20;90.80;;;;;;4986705;28;20498;-67
2022/06/25 00:51:42;;;;;;;19.30;18.40;;;17.10;90.70;;;;;;4985311;28;20921;-67
2022/06/25 00:54:11;;;;;;;18.83;17.90;;;17.20;90.70;;;;;;4985668;28;20454;-67
2022/06/25 00:56:43;;;;;;;18.90;17.90;;;17.10;91.00;;;;;;4987557;28;20478;-67
2022/06/25 00:59:13;;;;;;;18.67;17.70;;;17.10;91.00;;;;;;4987865;28;20801;-69
2022/06/25 01:01:40;;;;;;;18.67;17.77;;;17.10;91.20;;;;;;4985118;28;20486;-72
2022/06/25 01:04:07;;;;;;;18.73;17.83;;;17.00;91.20;;;;;;4987629;28;20450;-70
2022/06/25 01:06:34;;;;;;;18.80;17.77;;;17.00;91.20;;;;;;4986362;28;20584;-70
2022/06/25 01:09:01;;;;;;;18.70;17.90;;;17.00;91.30;;;;;;4986757;28;20461;-69
2022/06/25 01:11:30;;;;;;;19.33;18.33;;;17.00;91.40;;;;;;4985647;28;20826;-69
2022/06/25 01:13:57;;;;;;;19.83;18.37;;;17.00;91.30;;;;;;4987360;28;20466;-69
2022/06/25 01:16:24;;;;;;;19.30;18.40;;;17.00;91.30;;;;;;4987468;28;20470;-70
2022/06/25 01:18:51;;;;;;;19.33;18.20;;;16.90;91.40;;;;;;4982690;28;20466;-70
2022/06/25 01:21:18;;;;;;;18.70;17.80;;;16.90;91.70;;;;;;4981420;28;21003;-73
2022/06/25 01:23:46;;;;;;;19.00;18.00;;;16.90;91.80;;;;;;4984495;28;20462;-70
2022/06/25 01:26:14;;;;;;;18.70;17.80;;;16.80;91.90;;;;;;4987858;28;20500;-73
2022/06/25 01:28:40;;;;;;;19.10;17.90;;;16.80;91.90;;;;;;4987146;28;20462;-70
2022/06/25 01:31:08;;;;;;;18.97;17.97;;;16.80;92.00;;;;;;4983936;28;20473;-69
2022/06/25 01:33:35;;;;;;;18.57;17.67;;;16.70;92.20;;;;;;4987090;28;20465;-70
2022/06/25 01:36:01;;;;;;;18.30;17.40;;;16.70;92.10;;;;;;4988575;28;20472;-70
2022/06/25 01:38:28;;;;;;;18.57;17.57;;;16.70;92.30;;;;;;4985657;28;20484;-70
2022/06/25 01:40:57;;;;;;;19.10;18.20;;;16.70;92.30;;;;;;4987792;28;20581;-69
2022/06/25 01:43:24;;;;;;;18.10;17.20;;;16.70;92.30;;;;;;4984471;28;20503;-69
2022/06/25 01:45:51;;;;;;;19.50;17.80;;;16.70;92.10;;;;;;4988048;28;20464;-69
2022/06/25 01:48:17;;;;;;;18.23;17.23;;;16.70;91.90;;;;;;4985946;28;20593;-70
2022/06/25 01:50:44;;;;;;;18.90;18.00;;;16.70;92.00;;;;;;4985080;28;20545;-71
2022/06/25 01:53:11;;;;;;;18.70;17.70;;;16.60;92.00;;;;;;4987941;28;20903;-69
2022/06/25 01:55:38;;;;;;;18.33;17.43;;;16.70;91.90;;;;;;4987182;28;20462;-67
2022/06/25 01:58:07;;;;;;;18.33;17.43;;;16.60;91.80;;;;;;4986731;28;20482;-67
2022/06/25 02:00:34;;;;;;;19.27;18.23;;;16.60;92.00;;;;;;4984261;28;21026;-67
2022/06/25 02:03:01;;;;;;;18.60;17.60;;;16.60;91.90;;;;;;4987331;28;20533;-67
2022/06/25 02:08:17;;;;;;;19.17;18.03;;;16.60;91.60;;;;;;4979476;28;21075;-67
2022/06/25 02:10:46;;;;;;;18.47;17.57;;;16.60;91.60;;;;;;4982973;28;20589;-67
2022/06/25 02:13:14;;;;;;;18.80;17.80;;;16.60;91.70;;;;;;4986229;28;20537;-67
2022/06/25 02:15:41;;;;;;;18.00;17.20;;;16.60;91.70;;;;;;4990226;28;20540;-67
2022/06/25 02:18:10;;;;;;;18.50;17.30;;;16.60;91.50;;;;;;4991320;28;21303;-67
2022/06/25 02:20:37;;;;;;;18.53;17.53;;;16.60;91.50;;;;;;4983461;28;21014;-67
2022/06/25 02:23:04;;;;;;;17.90;17.10;;;16.50;91.90;;;;;;4992623;28;20461;-67
2022/06/25 02:25:31;;;;;;;18.80;17.90;;;16.50;92.30;;;;;;4991812;28;20465;-67
2022/06/25 02:27:58;;;;;;;18.40;17.40;;;16.50;92.10;;;;;;4989170;28;21079;-66
2022/06/25 02:30:27;;;;;;;19.00;18.00;;;16.50;91.90;;;;;;4985492;28;20901;-67
2022/06/25 02:32:53;;;;;;;18.70;17.73;;;16.50;91.80;;;;;;4991189;28;20497;-67
2022/06/25 02:35:20;;;;;;;18.70;17.80;;;16.40;92.00;;;;;;4990591;28;20970;-67
2022/06/25 02:37:47;;;;;;;18.73;17.83;;;16.40;91.90;;;;;;4988417;28;20589;-67
2022/06/25 02:40:15;;;;;;;19.37;18.10;;;16.40;92.00;;;;;;4988060;28;21240;-67
2022/06/25 02:42:42;;;;;;;18.30;17.33;;;16.40;92.20;;;;;;4989985;28;20569;-67
2022/06/25 02:45:10;;;;;;;18.37;17.30;;;16.40;92.00;;;;;;4987331;28;20580;-68
2022/06/25 02:47:38;;;;;;;18.73;17.60;;;16.40;92.00;;;;;;4990467;28;20931;-67
2022/06/25 02:50:07;;;;;;;17.83;17.03;;;16.40;92.10;;;;;;4988470;28;21016;-67
2022/06/25 02:52:34;;;;;;;17.50;16.70;;;16.30;92.50;;;;;;4987941;28;20458;-67
2022/06/25 02:55:01;;;;;;;17.90;16.90;;;16.30;92.60;;;;;;4989679;28;20557;-67
2022/06/25 03:00:14;;;;;;;18.70;17.63;;;16.30;92.40;;;;;;4986726;28;20461;-67
2022/06/25 03:02:42;;;;;;;18.70;17.60;;;16.40;92.30;;;;;;4991011;28;20498;-67
2022/06/25 03:05:09;;;;;;;17.40;16.60;;;16.30;92.30;;;;;;4987779;28;20466;-68
2022/06/25 03:07:37;;;;;;;18.77;17.87;;;16.30;92.50;;;;;;4989804;28;20494;-71
2022/06/25 03:10:04;;;;;;;18.17;17.20;;;16.30;92.60;;;;;;4986153;28;20454;-67
2022/06/25 03:12:31;;;;;;;18.50;17.50;;;16.20;92.60;;;;;;4987189;28;20564;-68
2022/06/25 03:14:58;;;;;;;18.07;17.07;;;16.30;92.40;;;;;;4989631;28;20545;-67
2022/06/25 03:17:25;;;;;;;17.77;16.97;;;16.30;92.20;;;;;;4989404;28;20481;-67
2022/06/25 03:19:54;;;;;;;17.90;17.10;;;16.20;92.30;;;;;;4988011;28;20537;-67
2022/06/25 03:22:21;;;;;;;17.97;17.07;;;16.20;92.20;;;;;;4980481;28;20554;-67
2022/06/25 03:24:48;;;;;;;18.73;17.20;;;16.20;92.00;;;;;;4985931;28;20466;-67
2022/06/25 03:27:15;;;;;;;18.53;17.60;;;16.20;92.10;;;;;;4987977;28;20573;-67
2022/06/25 03:29:42;;;;;;;19.17;18.17;;;16.20;92.10;;;;;;4988480;28;20474;-67
2022/06/25 03:32:10;;;;;;;19.40;18.40;;;16.20;92.00;;;;;;4989320;28;20458;-67
2022/06/25 03:34:36;;;;;;;18.30;17.50;;;16.20;92.00;;;;;;4989773;28;20462;-67
2022/06/25 03:37:05;;;;;;;19.30;17.97;;;16.20;92.10;;;;;;4988631;28;20502;-67
2022/06/25 03:39:32;;;;;;;19.00;17.73;;;16.20;92.00;;;;;;4987451;28;20564;-67
2022/06/25 03:41:59;;;;;;;19.10;18.10;;;16.20;92.00;;;;;;4988947;28;20482;-67
2022/06/25 03:44:26;;;;;;;18.93;17.50;;;16.20;91.90;;;;;;4985906;28;20557;-67
2022/06/25 03:46:53;;;;;;;18.20;17.30;;;16.20;91.60;;;;;;4989225;28;20482;-67
2022/06/25 03:49:20;;;;;;;17.90;17.00;;;16.30;91.70;;;;;;4985762;28;20472;-67
2022/06/25 03:51:47;;;;;;;18.13;17.17;;;16.30;91.80;;;;;;4992388;28;20486;-67
2022/06/25 03:54:15;;;;;;;19.10;18.10;;;16.60;91.50;;;;;;4987625;28;20458;-67
2022/06/25 03:56:42;;;;;;;19.27;18.10;;;16.90;90.30;;;;;;4987567;28;20486;-67
2022/06/25 03:59:09;;;;;;;19.17;18.27;;;17.40;88.20;;;;;;4988528;28;20492;-67
2022/06/25 04:01:36;;;;;;;20.57;19.17;;;17.90;85.20;;;;;;4988302;28;21285;-67
2022/06/25 04:04:03;;;;;;;21.33;20.23;;;18.40;84.00;;;;;;4988919;28;20462;-67
2022/06/25 04:06:30;;;;;;;21.30;20.20;;;18.60;82.40;;;;;;4990498;28;20497;-67
2022/06/25 04:08:57;;;;;;;22.10;20.80;;;18.50;82.60;;;;;;4988502;28;20490;-67
2022/06/25 04:11:26;;;;;;;22.70;21.50;;;18.30;82.70;;;;;;4987718;28;20458;-67
2022/06/25 04:13:53;;;;;;;21.70;20.50;;;18.10;83.50;;;;;;4988953;28;20462;-67
2022/06/25 04:16:20;;;;;;;21.67;20.33;;;18.00;84.20;;;;;;4987965;28;20549;-67
2022/06/25 04:18:47;;;;;;;21.90;20.70;;;17.90;84.40;;;;;;4988308;28;20548;-67
2022/06/25 04:21:14;;;;;;;21.90;20.50;;;17.80;85.00;;;;;;4988007;28;20481;-66
2022/06/25 04:23:41;;;;;;;21.60;20.57;;;17.70;85.30;;;;;;4987848;28;20879;-67
2022/06/25 04:26:09;;;;;;;21.50;20.50;;;17.70;85.60;;;;;;4987964;28;20837;-67
2022/06/25 04:31:21;;;;;;;20.80;19.80;;;17.70;86.10;;;;;;4984056;28;20517;-67
2022/06/25 04:33:48;;;;;;;21.07;19.87;;;17.60;86.40;;;;;;4989562;28;21027;-67
2022/06/25 04:36:15;;;;;;;21.00;19.80;;;17.70;86.20;;;;;;4987317;28;20493;-67
2022/06/25 04:38:42;;;;;;;20.70;19.60;;;17.70;85.90;;;;;;4984608;28;21209;-67
2022/06/25 04:41:10;;;;;;;23.10;21.80;;;17.80;85.50;;;;;;4984267;28;20565;-67
2022/06/25 04:43:38;;;;;;;20.87;19.77;;;17.90;85.50;;;;;;4984925;28;20869;-68
2022/06/25 04:46:05;;;;;;;21.30;20.00;;;17.90;85.60;;;;;;4987001;28;20472;-67
2022/06/25 04:48:32;;;;;;;22.33;21.07;;;18.00;85.50;;;;;;4986045;28;21049;-67
2022/06/25 04:50:59;;;;;;;21.53;20.33;;;18.10;85.30;;;;;;4984400;28;20519;-69
2022/06/25 04:53:27;;;;;;;22.07;20.97;;;18.10;85.00;;;;;;4987587;28;20545;-70
2022/06/25 04:55:54;;;;;;;21.47;20.37;;;18.10;85.10;;;;;;4984456;28;22227;-70
2022/06/25 04:58:21;;;;;;;21.43;20.23;;;18.10;85.10;;;;;;4983998;28;20919;-70
2022/06/25 05:00:50;;;;;;;21.80;20.70;;;18.00;85.40;;;;;;4984872;28;20534;-70
2022/06/25 05:03:17;;;;;;;21.27;20.07;;;18.10;85.60;;;;;;4988780;28;20485;-69
2022/06/25 05:05:44;;;;;;;21.00;19.67;;;18.10;85.60;;;;;;4986975;28;20469;-69
2022/06/25 05:08:11;;;;;;;20.50;19.10;;;18.20;85.20;;;;;;4985767;28;21015;-70
2022/06/25 05:10:38;;;;;;;22.13;20.83;;;18.30;85.20;;;;;;4977206;28;20203;-69
2022/06/25 05:13:13;;;;;;;22.00;20.90;;;18.40;85.00;;;;;;4987555;28;20454;-71
2022/06/25 05:15:41;;;;;;;24.50;23.13;;;18.40;85.00;;;;;;4983219;28;20458;-69
2022/06/25 05:18:10;;;;;;;22.40;21.30;;;18.50;85.10;;;;;;4987324;28;20541;-69
2022/06/25 05:20:39;;;;;;;22.57;21.47;;;18.60;84.60;;;;;;4974572;28;20486;-70
2022/06/25 05:23:06;;;;;;;22.27;21.13;;;18.60;84.30;;;;;;4987395;28;20485;-69
2022/06/25 05:25:33;;;;;;;20.27;19.27;;;18.60;84.60;;;;;;4986776;28;20545;-72
2022/06/25 05:28:00;;;;;;;21.73;20.63;;;18.60;84.80;;;;;;4984794;28;20514;-73
2022/06/25 05:30:27;;;;;;;21.33;20.13;;;18.50;85.00;;;;;;4986959;28;20557;-75
2022/06/25 05:32:54;;;;;;;21.63;20.53;;;18.60;84.80;;;;;;4987402;28;20481;-71
2022/06/25 05:35:23;;;;;;;21.23;20.03;;;18.80;84.70;;;;;;4988559;28;20462;-71
2022/06/25 05:37:50;;;;;;;21.70;20.30;;;19.00;83.90;;;;;;4982367;28;20869;-73
2022/06/25 05:40:17;;;;;;;21.73;20.43;;;19.00;83.70;;;;;;4983478;28;21015;-72
2022/06/25 05:42:44;;;;;;;21.90;20.70;;;19.20;83.50;;;;;;4985367;28;20467;-76
2022/06/25 05:45:16;;;;;;;24.40;23.10;;;19.40;82.70;;;;;;4981773;28;20502;-76
2022/06/25 05:47:42;;;;;;;22.67;21.47;;;19.40;81.90;;;;;;4985238;28;20532;-71
2022/06/25 05:50:10;;;;;;;21.80;20.70;;;19.60;81.50;;;;;;4989488;28;20480;-70
2022/06/25 05:52:38;;;;;;;22.40;21.07;;;19.60;81.40;;;;;;4991342;28;20502;-70
2022/06/25 05:55:07;;;;;;;21.90;20.70;;;19.70;81.10;;;;;;4989905;28;20978;-70
2022/06/25 05:57:34;;;;;;;22.77;21.20;;;19.80;81.10;;;;;;4991837;28;20637;-71
2022/06/25 06:00:01;;;;;;;21.87;20.63;;;19.90;80.10;;;;;;4989577;28;20541;-71
2022/06/25 06:02:28;;;;;;;22.27;21.00;;;20.00;80.00;;;;;;4992386;28;20492;-71
2022/06/25 06:04:55;;;;;;;22.10;20.80;;;20.10;79.70;;;;;;4989638;28;20495;-71
2022/06/25 06:07:22;;;;;;;23.10;21.90;;;20.20;79.40;;;;;;4991378;28;20877;-71
2022/06/25 06:09:51;;;;;;;23.33;22.03;;;20.30;79.30;;;;;;4990537;28;20480;-71
2022/06/25 06:12:18;;;;;;;25.00;23.57;;;20.50;78.90;;;;;;4989621;28;20464;-69
2022/06/25 06:14:45;;;;;;;22.90;21.70;;;20.50;78.60;;;;;;4990790;28;20534;-70
2022/06/25 06:17:12;;;;;;;26.20;24.70;;;20.60;78.20;;;;;;4987692;28;20586;-72
2022/06/25 06:19:39;;;;;;;23.67;22.27;;;20.60;77.70;;;;;;4989385;28;20825;-70
2022/06/25 06:22:06;;;;;;;23.63;22.20;;;20.70;77.70;;;;;;4987018;28;20545;-70
2022/06/25 06:24:33;;;;;;;24.20;22.90;;;20.80;77.60;;;;;;4990724;28;20556;-72
2022/06/25 06:27:01;;;;;;;24.13;22.83;;;20.80;77.20;;;;;;4989387;28;20897;-72
2022/06/25 06:29:28;;;;;;;23.83;22.53;;;20.90;76.70;;;;;;4987277;28;20456;-76
2022/06/25 06:31:55;;;;;;;23.10;21.90;;;21.00;76.40;;;;;;4989708;28;20914;-72
2022/06/25 06:34:22;;;;;;;25.50;24.20;;;21.10;75.80;;;;;;4992276;28;20482;-74
2022/06/25 06:36:51;;;;;;;24.40;23.07;;;21.20;75.60;;;;;;4992060;28;20575;-77
2022/06/25 06:39:18;;;;;;;23.83;22.63;;;21.30;75.20;;;;;;4981871;28;20503;-73
2022/06/25 06:41:45;;;;;;;24.43;23.03;;;21.20;75.40;;;;;;4983901;28;20502;-73
2022/06/25 06:44:13;;;;;;;27.10;25.70;;;21.20;75.30;;;;;;4990298;28;20828;-73
2022/06/25 06:46:40;;;;;;;25.13;23.57;;;21.30;75.40;;;;;;4988364;28;20541;-72
2022/06/25 06:49:09;;;;;;;24.97;23.60;;;21.30;74.80;;;;;;4987755;28;20689;-73
2022/06/25 06:51:36;;;;;;;24.67;23.27;;;21.40;74.90;;;;;;4990243;28;20519;-76
2022/06/25 06:54:03;;;;;;;24.93;23.60;;;21.50;75.20;;;;;;4989561;28;20481;-78
2022/06/25 06:56:30;;;;;;;25.77;24.27;;;21.60;75.20;;;;;;4986979;28;20539;-73
2022/06/25 06:58:57;;;;;;;28.10;26.50;;;21.70;74.70;;;;;;4988909;28;20534;-73
2022/06/25 07:01:26;;;;;;;24.73;23.43;;;21.80;74.10;;;;;;4986279;28;20462;-74
2022/06/25 07:03:53;;;;;;;24.70;23.20;;;21.90;73.60;;;;;;4986993;28;20487;-73
2022/06/25 07:06:20;;;;;;;24.53;23.13;;;21.90;73.10;;;;;;4988640;28;20766;-76
2022/06/25 07:08:47;;;;;;;26.97;25.43;;;22.00;73.10;;;;;;4987185;28;20832;-73
2022/06/25 07:11:30;;;;;;;26.40;24.90;;;22.10;72.40;;;;;;4986070;28;20462;-70
2022/06/25 07:13:59;;;;;;;25.30;23.80;;;22.20;72.10;;;;;;4985446;28;20468;-74
2022/06/25 07:16:28;;;;;;;25.67;24.07;;;22.30;71.40;;;;;;4986864;28;20529;-76
2022/06/25 07:18:56;;;;;;;29.23;27.30;;;22.40;70.10;;;;;;4988144;28;20579;-73
2022/06/25 07:21:24;;;;;;;25.47;23.80;;;22.30;70.60;;;;;;4988554;28;20463;-73
2022/06/25 07:23:54;;;;;;;27.40;25.80;;;22.40;71.00;;;;;;4988177;28;20564;-74
2022/06/25 07:26:22;;;;;;;26.30;24.80;;;22.60;70.70;;;;;;4988349;28;20525;-74
2022/06/25 07:28:51;;;;;;;24.40;23.10;;;22.80;70.40;;;;;;4988082;28;20466;-74
2022/06/25 07:31:18;;;;;;;27.00;25.60;;;22.90;70.20;;;;;;4986633;28;20465;-75
2022/06/25 07:33:47;;;;;;;24.93;23.40;;;23.00;69.60;;;;;;4984755;28;20490;-74
2022/06/25 07:36:14;;;;;;;26.57;24.97;;;23.20;69.00;;;;;;4987633;28;21311;-73
2022/06/25 07:38:41;;;;;;;26.83;25.30;;;23.30;68.00;;;;;;4986283;28;20567;-73
2022/06/25 07:41:08;;;;;;;26.40;25.00;;;23.40;68.00;;;;;;4987199;28;20480;-73
2022/06/25 07:43:35;;;;;;;27.60;26.20;;;23.50;67.10;;;;;;4984164;28;20474;-73
2022/06/25 07:46:02;;;;;;;26.23;24.63;;;23.40;67.20;;;;;;4989628;28;20832;-74
2022/06/25 07:48:29;;;;;;;26.83;25.33;;;23.30;67.60;;;;;;4987842;28;20485;-75
2022/06/25 07:53:42;;;;;;;27.20;25.27;;;23.20;67.40;;;;;;4985765;28;20488;-75
2022/06/25 07:56:09;;;;;;;25.60;24.20;;;23.20;67.60;;;;;;4983270;28;20465;-73
2022/06/25 07:58:37;;;;;;;25.50;23.97;;;23.20;67.50;;;;;;4987991;28;20561;-74
2022/06/25 08:01:04;;;;;;;27.33;25.67;;;23.50;67.30;;;;;;4983412;28;20468;-73
2022/06/25 08:03:31;;;;;;;27.50;26.00;;;23.70;67.00;;;;;;4983350;28;20500;-75
2022/06/25 08:05:59;;;;;;;26.27;24.67;;;23.90;66.80;;;;;;4986740;28;20847;-74
2022/06/25 08:08:26;;;;;;;28.67;27.17;;;24.10;66.20;;;;;;4987596;28;20561;-78
2022/06/25 08:10:54;;;;;;;26.10;24.53;;;24.20;65.80;;;;;;4983147;28;20545;-73
2022/06/25 08:13:21;;;;;;;25.77;24.37;;;24.30;65.40;;;;;;4986130;28;21030;-78
2022/06/25 08:15:48;;;;;;;27.47;25.97;;;24.40;64.60;;;;;;4986830;28;20955;-76
2022/06/25 08:18:15;;;;;;;29.57;26.20;;;24.50;64.20;;;;;;4981588;28;20983;-71
2022/06/25 08:20:42;;;;;;;26.57;24.97;;;24.50;64.20;;;;;;4987145;28;20569;-73
2022/06/25 08:23:10;;;;;;;25.70;24.30;;;24.60;64.20;;;;;;4982927;28;20482;-73
2022/06/25 08:25:37;;;;;;;26.90;25.40;;;24.60;64.00;;;;;;4985854;28;20469;-73
2022/06/25 08:28:05;;;;;;;26.40;25.00;;;24.60;63.60;;;;;;4984348;28;21056;-74
2022/06/25 08:30:32;;;;;;;28.63;27.00;;;24.60;63.30;;;;;;4983739;28;21009;-73
2022/06/25 08:32:58;;;;;;;28.93;27.13;;;24.70;63.80;;;;;;4985271;28;20456;-75
2022/06/25 08:35:25;;;;;;;26.03;24.63;;;24.90;63.50;;;;;;4987055;28;20490;-73
2022/06/25 08:37:52;;;;;;;27.77;26.10;;;25.00;63.00;;;;;;4986200;28;20478;-73
2022/06/25 08:40:22;;;;;;;26.40;25.10;;;25.10;62.50;;;;;;4984367;28;20462;-76
2022/06/25 08:42:49;;;;;;;27.83;26.00;;;25.20;62.10;;;;;;4981148;28;20681;-71
2022/06/25 08:45:17;;;;;;;29.73;27.67;;;25.10;62.30;;;;;;4988072;28;20482;-75
2022/06/25 08:47:45;;;;;;;28.77;27.47;;;25.20;62.30;;;;;;4984080;28;20477;-72
2022/06/25 08:50:15;;;;;;;26.93;25.33;;;25.40;62.20;;;;;;4986530;28;20503;-73
2022/06/25 08:52:46;;;;;;;26.60;25.10;;;25.60;61.80;;;;;;4984936;28;20462;-69
2022/06/25 08:55:20;;;;;;;27.50;25.87;;;25.60;61.10;;;;;;4986458;28;20557;-71
2022/06/25 08:57:49;;;;;;;26.50;25.00;;;25.70;61.20;;;;;;4986167;28;20578;-72
2022/06/25 09:00:16;;;;;;;26.97;25.30;;;25.70;60.90;;;;;;4985938;28;20550;-70
2022/06/25 09:02:43;;;;;;;28.10;26.40;;;25.90;60.50;;;;;;4988821;28;20563;-72
2022/06/25 09:05:10;;;;;;;28.50;26.90;;;26.00;60.50;;;;;;4984360;28;20463;-73
2022/06/25 09:07:37;;;;;;;28.97;27.27;;;25.90;60.70;;;;;;4989798;28;20476;-72
2022/06/25 09:10:04;;;;;;;27.13;25.50;;;25.80;60.20;;;;;;4987800;28;20548;-73
2022/06/25 09:12:33;;;;;;;27.73;26.13;;;25.90;60.20;;;;;;4989542;28;21041;-72
2022/06/25 09:15:01;;;;;;;29.70;28.10;;;25.90;60.80;;;;;;4987364;28;20560;-73
2022/06/25 09:17:28;;;;;;;29.50;27.70;;;25.80;60.20;;;;;;4977552;28;20576;-72
2022/06/25 09:19:57;;;;;;;28.40;26.63;;;25.80;59.70;;;;;;4987729;28;21074;-72
2022/06/25 09:22:25;;;;;;;28.13;26.43;;;25.70;60.30;;;;;;4988878;28;20460;-72
2022/06/25 09:24:53;;;;;;;25.60;24.20;;;25.70;60.20;;;;;;4990988;28;20572;-75
2022/06/25 09:27:22;;;;;;;29.00;27.17;;;25.80;60.10;;;;;;4991954;28;20539;-73
2022/06/25 09:29:50;;;;;;;27.70;26.10;;;25.90;59.70;;;;;;4993208;28;20645;-72
2022/06/25 09:32:19;;;;;;;26.37;24.87;;;25.90;59.30;;;;;;4992658;28;20556;-71
2022/06/25 09:34:46;;;;;;;26.57;25.07;;;25.80;58.40;;;;;;4990454;28;20551;-72
2022/06/25 09:37:27;;;;;;;30.30;25.10;;;25.80;58.30;;;;;;4992274;28;20566;-72
2022/06/25 09:39:56;;;;;;;27.57;25.97;;;25.70;58.50;;;;;;4992237;28;20461;-72
2022/06/25 09:42:26;;;;;;;26.47;24.80;;;25.60;58.80;;;;;;4992169;28;20543;-73
2022/06/25 09:45:06;;;;;;;27.03;25.43;;;25.60;58.20;;;;;;4991251;28;20477;-72
2022/06/25 09:47:37;;;;;;;27.90;26.20;;;25.70;57.90;;;;;;4989827;28;20519;-72
2022/06/25 09:50:07;;;;;;;28.63;27.03;;;25.90;58.20;;;;;;4990689;28;20851;-72
2022/06/25 09:52:36;;;;;;;26.83;25.20;;;26.00;59.00;;;;;;4980566;28;20948;-72
2022/06/25 09:55:03;;;;;;;28.10;26.20;;;26.40;58.90;;;;;;4992163;28;20462;-75
2022/06/25 09:57:31;;;;;;;27.10;25.47;;;26.70;57.50;;;;;;4991829;28;20568;-74
2022/06/25 10:00:00;;;;;;;28.53;26.77;;;26.90;57.00;;;;;;4990662;28;20537;-74
2022/06/25 10:02:29;;;;;;;28.07;26.47;;;27.00;56.70;;;;;;4991498;28;20546;-72
2022/06/25 10:05:01;;;;;;;27.93;26.33;;;27.10;55.60;;;;;;4991460;28;20536;-72
2022/06/25 10:10:14;;;;;;;27.37;25.83;;;27.10;56.50;;;;;;4987137;28;20460;-74
2022/06/25 10:12:41;;;;;;;27.63;26.03;;;27.20;55.90;;;;;;4991276;28;20549;-72
2022/06/25 10:15:09;;;;;;;26.60;25.10;;;27.30;55.50;;;;;;4991658;28;20549;-73
2022/06/25 10:17:37;;;;;;;26.40;24.70;;;27.40;55.80;;;;;;4992736;28;20628;-72
2022/06/25 10:20:08;;;;;;;27.83;25.83;;;27.20;55.60;;;;;;4987382;28;20488;-74
2022/06/25 10:22:37;;;;;;;26.70;25.20;;;26.90;55.10;;;;;;4989356;28;20472;-72
2022/06/25 10:25:08;;;;;;;27.60;26.00;;;26.60;56.40;;;;;;4989743;28;20478;-72
2022/06/25 10:27:39;;;;;;;26.73;25.00;;;26.70;56.30;;;;;;4987798;28;21031;-72
2022/06/25 10:30:07;;;;;;;27.33;25.63;;;26.70;56.60;;;;;;4987036;28;20458;-69
2022/06/25 10:32:43;;;;;;;26.13;24.67;;;26.60;56.80;;;;;;4988743;28;20521;-70
2022/06/25 10:35:28;;;;;;;26.30;24.80;;;26.40;56.40;;;;;;4991199;28;20475;-70
2022/06/25 10:38:03;;;;;;;28.13;26.23;;;26.20;55.30;;;;;;4989603;28;20477;-70
2022/06/25 10:40:32;;;;;;;29.80;27.80;;;26.00;56.40;;;;;;4989265;28;20465;-72
2022/06/25 10:43:03;;;;;;;29.03;27.23;;;26.10;56.80;;;;;;4990983;28;21114;-73
2022/06/25 10:45:52;;;;;;;29.20;27.33;;;26.20;56.00;;;;;;4988879;28;20557;-70
2022/06/25 10:48:22;;;;;;;27.90;26.20;;;26.60;56.10;;;;;;4983688;28;20481;-72
2022/06/25 10:50:52;;;;;;;28.70;27.00;;;26.80;55.40;;;;;;4991039;28;20486;-78
2022/06/25 10:53:20;;;;;;;26.17;24.67;;;26.90;54.10;;;;;;4985426;28;20458;-76
2022/06/25 10:56:16;;;;;;;27.87;26.17;;;26.90;55.40;;;;;;4990355;28;20466;-73
2022/06/25 10:58:53;;;;;;;27.97;26.17;;;26.90;57.00;;;;;;4989672;28;20473;-70
2022/06/25 11:01:29;;;;;;;28.83;27.13;;;26.80;53.50;;;;;;4987792;28;20477;-72
2022/06/25 11:03:59;;;;;;;29.53;27.93;;;26.90;53.70;;;;;;4988552;28;20493;-72
2022/06/25 11:06:30;;;;;;;28.50;26.90;;;26.90;53.30;;;;;;4990201;28;20477;-72
2022/06/25 11:09:06;;;;;;;28.77;26.97;;;26.90;52.90;;;;;;4990347;28;20462;-74
2022/06/25 11:11:34;;;;;;;28.37;26.57;;;27.00;52.90;;;;;;4989103;28;20467;-73
2022/06/25 11:14:07;;;;;;;27.50;25.90;;;27.20;51.40;;;;;;4988064;28;20918;-73
2022/06/25 11:16:34;;;;;;;29.50;27.50;;;27.10;51.40;;;;;;4989059;28;20458;-74
2022/06/25 11:19:01;;;;;;;30.60;28.70;;;27.30;52.00;;;;;;4988666;28;20458;-73
2022/06/25 11:21:32;;;;;;;27.90;26.30;;;27.40;52.90;;;;;;4982983;28;20477;-73
2022/06/25 11:24:20;;;;;;;27.00;25.40;;;27.60;52.10;;;;;;4987345;28;20478;-72
2022/06/25 11:29:40;;;;;;;30.50;28.77;;;27.60;51.20;;;;;;4989609;28;20504;-72
2022/06/25 11:32:09;;;;;;;28.90;27.20;;;27.60;51.60;;;;;;4989090;28;20468;-71
2022/06/25 11:34:36;;;;;;;28.90;27.10;;;27.70;51.00;;;;;;4989597;28;20470;-75
2022/06/25 11:37:08;;;;;;;28.60;26.57;;;27.80;50.80;;;;;;4988943;28;20496;-73
2022/06/25 11:39:36;;;;;;;28.17;26.57;;;27.80;51.10;;;;;;4990379;28;20489;-75
2022/06/25 11:42:04;;;;;;;28.10;26.50;;;27.70;50.80;;;;;;4987230;28;20585;-74
2022/06/25 11:44:39;;;;;;;27.43;25.83;;;27.50;49.90;;;;;;4989854;28;20474;-75
2022/06/25 11:47:06;;;;;;;29.57;27.67;;;27.40;51.00;;;;;;4987978;28;20485;-77
2022/06/25 11:49:37;;;;;;;28.97;27.27;;;27.50;51.40;;;;;;4989786;28;20463;-74
2022/06/25 11:52:07;;;;;;;27.63;25.83;;;27.60;51.10;;;;;;4988350;28;20568;-73
2022/06/25 11:54:36;;;;;;;27.13;25.13;;;27.70;51.60;;;;;;4988469;28;20644;-73
2022/06/25 11:57:04;;;;;;;28.33;26.73;;;27.80;50.60;;;;;;4987226;28;20490;-73
2022/06/25 11:59:33;;;;;;;28.50;26.30;;;27.50;51.30;;;;;;4989831;28;20581;-73
2022/06/25 12:02:03;;;;;;;27.10;25.40;;;27.60;50.50;;;;;;4987515;28;20561;-72
2022/06/25 12:04:30;;;;;;;28.77;27.17;;;27.70;49.20;;;;;;4990827;28;20485;-69
2022/06/25 12:06:58;;;;;;;27.73;26.13;;;27.80;51.10;;;;;;4986853;28;20588;-70
2022/06/25 12:09:26;;;;;;;28.00;26.30;;;27.90;51.40;;;;;;4988481;28;20572;-72
2022/06/25 12:11:56;;;;;;;27.40;25.67;;;28.00;50.40;;;;;;4985261;28;20450;-76
2022/06/25 12:14:26;;;;;;;28.10;26.50;;;28.10;49.70;;;;;;4988176;28;21234;-73
2022/06/25 12:16:54;;;;;;;29.70;27.90;;;28.20;49.20;;;;;;4988955;28;20929;-74
2022/06/25 12:19:22;;;;;;;28.13;26.33;;;28.30;49.00;;;;;;4989297;28;20477;-74
2022/06/25 12:21:50;;;;;;;30.07;27.77;;;28.20;49.30;;;;;;4988720;28;20458;-74
2022/06/25 12:24:19;;;;;;;27.60;26.00;;;28.30;50.20;;;;;;4986470;28;20482;-74
2022/06/25 12:26:55;;;;;;;26.48;24.88;;;28.30;49.20;;;;;;4985667;28;20469;-76
2022/06/25 12:29:25;;;;;;;29.40;27.70;;;28.40;49.00;;;;;;4988249;28;20202;-75
2022/06/25 12:31:55;;;;;;;29.60;27.60;;;28.40;48.50;;;;;;4988507;28;20572;-72
2022/06/25 12:34:24;;;;;;;29.20;27.50;;;28.40;48.10;;;;;;4986337;28;21043;-72
2022/06/25 12:36:52;;;;;;;27.20;25.70;;;28.40;48.60;;;;;;4983197;28;21010;-73
2022/06/25 12:39:33;;;;;;;30.00;28.20;;;28.40;48.60;;;;;;4988014;28;20989;-73
2022/06/25 12:42:08;;;;;;;27.70;26.00;;;28.40;49.10;;;;;;4987278;28;20508;-71
2022/06/25 12:44:37;;;;;;;27.80;26.20;;;28.40;48.20;;;;;;4982389;28;20496;-72
2022/06/25 12:47:07;;;;;;;29.00;27.17;;;28.50;49.00;;;;;;4988434;28;20573;-71
2022/06/25 12:49:45;;;;;;;28.80;27.10;;;28.50;48.10;;;;;;4989144;28;20549;-73
2022/06/25 12:52:13;;;;;;;28.97;27.17;;;28.50;47.60;;;;;;4986982;28;20458;-75
2022/06/25 12:54:45;;;;;;;27.00;25.30;;;28.50;47.20;;;;;;4985750;28;20458;-73
2022/06/25 12:57:24;;;;;;;27.90;26.30;;;28.30;47.30;;;;;;4987932;28;20814;-73